sensor_id;sensor_type;location;lat;lon;timestamp;P1;durP1;ratioP1;P2;durP2;ratioP2
9976;SDS011;5029;47.378;11.776;2022-10-26T00:04:56;4.23;;;2.40;;
9976;SDS011;5029;47.378;11.776;2022-10-26T00:10:00;3.17;;;2.40;;
9976;SDS011;5029;47.378;11.776;2022-10-26T00:15:04;4.53;;;2.47;;
9976;SDS011;5029;47.378;11.776;2022-10-26T00:20:10;3.37;;;2.20;;
9976;SDS011;5029;47.378;11.776;2022-10-26T00:25:14;3.43;;;1.93;;
9976;SDS011;5029;47.378;11.776;2022-10-26T00:30:18;2.67;;;2.03;;
9976;SDS011;5029;47.378;11.776;2022-10-26T00:35:22;3.33;;;2.57;;
9976;SDS011;5029;47.378;11.776;2022-10-26T00:40:45;4.77;;;3.00;;
9976;SDS011;5029;47.378;11.776;2022-10-26T00:45:49;3.03;;;2.57;;
9976;SDS011;5029;47.378;11.776;2022-10-26T00:50:57;4.67;;;3.03;;
9976;SDS011;5029;47.378;11.776;2022-10-26T00:56:02;3.00;;;2.70;;
9976;SDS011;5029;47.378;11.776;2022-10-26T01:01:07;2.90;;;2.60;;
9976;SDS011;5029;47.378;11.776;2022-10-26T01:06:12;5.30;;;2.80;;
9976;SDS011;5029;47.378;11.776;2022-10-26T01:11:16;6.23;;;3.13;;
9976;SDS011;5029;47.378;11.776;2022-10-26T01:16:27;3.60;;;2.20;;
9976;SDS011;5029;47.378;11.776;2022-10-26T01:21:46;3.10;;;2.30;;
9976;SDS011;5029;47.378;11.776;2022-10-26T01:32:26;5.33;;;2.60;;
9976;SDS011;5029;47.378;11.776;2022-10-26T01:37:35;3.43;;;2.27;;
9976;SDS011;5029;47.378;11.776;2022-10-26T01:42:43;3.20;;;2.23;;
9976;SDS011;5029;47.378;11.776;2022-10-26T01:47:54;4.77;;;2.00;;
9976;SDS011;5029;47.378;11.776;2022-10-26T01:52:59;3.90;;;2.30;;
9976;SDS011;5029;47.378;11.776;2022-10-26T01:58:04;2.90;;;1.83;;
9976;SDS011;5029;47.378;11.776;2022-10-26T02:03:15;3.33;;;1.67;;
9976;SDS011;5029;47.378;11.776;2022-10-26T02:08:26;6.30;;;2.00;;
9976;SDS011;5029;47.378;11.776;2022-10-26T02:13:44;2.97;;;1.90;;
9976;SDS011;5029;47.378;11.776;2022-10-26T02:18:56;5.07;;;2.17;;
9976;SDS011;5029;47.378;11.776;2022-10-26T02:24:04;2.17;;;1.80;;
9976;SDS011;5029;47.378;11.776;2022-10-26T02:29:11;3.13;;;2.10;;
9976;SDS011;5029;47.378;11.776;2022-10-26T02:34:19;3.40;;;2.20;;
9976;SDS011;5029;47.378;11.776;2022-10-26T02:39:28;2.53;;;2.13;;
9976;SDS011;5029;47.378;11.776;2022-10-26T02:44:35;3.37;;;2.10;;
9976;SDS011;5029;47.378;11.776;2022-10-26T02:49:45;4.23;;;2.20;;
9976;SDS011;5029;47.378;11.776;2022-10-26T02:54:51;3.10;;;2.57;;
9976;SDS011;5029;47.378;11.776;2022-10-26T02:59:59;2.87;;;2.10;;
9976;SDS011;5029;47.378;11.776;2022-10-26T03:05:07;4.57;;;2.10;;
9976;SDS011;5029;47.378;11.776;2022-10-26T03:10:14;3.90;;;2.27;;
9976;SDS011;5029;47.378;11.776;2022-10-26T03:15:18;4.43;;;2.23;;
9976;SDS011;5029;47.378;11.776;2022-10-26T03:20:23;2.33;;;1.90;;
9976;SDS011;5029;47.378;11.776;2022-10-26T03:25:26;2.77;;;1.97;;
9976;SDS011;5029;47.378;11.776;2022-10-26T03:30:30;2.70;;;2.20;;
9976;SDS011;5029;47.378;11.776;2022-10-26T03:35:35;4.73;;;2.37;;
9976;SDS011;5029;47.378;11.776;2022-10-26T03:40:39;4.67;;;2.37;;
9976;SDS011;5029;47.378;11.776;2022-10-26T03:45:43;2.97;;;2.17;;
9976;SDS011;5029;47.378;11.776;2022-10-26T03:50:48;4.70;;;2.27;;
9976;SDS011;5029;47.378;11.776;2022-10-26T03:55:52;2.33;;;2.13;;
9976;SDS011;5029;47.378;11.776;2022-10-26T04:00:55;2.83;;;2.07;;
9976;SDS011;5029;47.378;11.776;2022-10-26T04:06:01;2.70;;;2.43;;
9976;SDS011;5029;47.378;11.776;2022-10-26T04:11:05;2.60;;;1.90;;
9976;SDS011;5029;47.378;11.776;2022-10-26T04:16:08;2.67;;;1.90;;
9976;SDS011;5029;47.378;11.776;2022-10-26T04:21:13;2.53;;;2.10;;
9976;SDS011;5029;47.378;11.776;2022-10-26T04:26:17;2.53;;;2.20;;
9976;SDS011;5029;47.378;11.776;2022-10-26T04:31:21;2.40;;;2.07;;
9976;SDS011;5029;47.378;11.776;2022-10-26T04:36:26;3.70;;;2.17;;
9976;SDS011;5029;47.378;11.776;2022-10-26T04:41:29;3.03;;;2.00;;
9976;SDS011;5029;47.378;11.776;2022-10-26T04:46:33;2.27;;;2.00;;
9976;SDS011;5029;47.378;11.776;2022-10-26T04:51:38;3.57;;;2.23;;
9976;SDS011;5029;47.378;11.776;2022-10-26T04:56:41;3.00;;;1.90;;
9976;SDS011;5029;47.378;11.776;2022-10-26T05:01:45;4.03;;;1.83;;
9976;SDS011;5029;47.378;11.776;2022-10-26T05:06:52;4.20;;;2.33;;
9976;SDS011;5029;47.378;11.776;2022-10-26T05:11:55;3.50;;;2.40;;
9976;SDS011;5029;47.378;11.776;2022-10-26T05:16:59;2.80;;;2.17;;
9976;SDS011;5029;47.378;11.776;2022-10-26T05:22:04;3.00;;;2.17;;
9976;SDS011;5029;47.378;11.776;2022-10-26T05:27:07;2.60;;;2.20;;
9976;SDS011;5029;47.378;11.776;2022-10-26T05:32:11;2.77;;;2.40;;
9976;SDS011;5029;47.378;11.776;2022-10-26T05:37:16;2.73;;;2.47;;
9976;SDS011;5029;47.378;11.776;2022-10-26T05:42:20;4.77;;;2.00;;
9976;SDS011;5029;47.378;11.776;2022-10-26T05:47:23;2.47;;;1.97;;
9976;SDS011;5029;47.378;11.776;2022-10-26T05:52:28;4.83;;;2.03;;
9976;SDS011;5029;47.378;11.776;2022-10-26T05:57:32;4.03;;;3.10;;
9976;SDS011;5029;47.378;11.776;2022-10-26T06:02:38;2.50;;;2.27;;
9976;SDS011;5029;47.378;11.776;2022-10-26T06:07:51;2.97;;;1.90;;
9976;SDS011;5029;47.378;11.776;2022-10-26T06:12:55;5.00;;;1.90;;
9976;SDS011;5029;47.378;11.776;2022-10-26T06:18:01;2.97;;;1.70;;
9976;SDS011;5029;47.378;11.776;2022-10-26T06:23:16;2.40;;;1.70;;
9976;SDS011;5029;47.378;11.776;2022-10-26T06:28:33;2.53;;;2.30;;
9976;SDS011;5029;47.378;11.776;2022-10-26T06:33:48;2.67;;;2.30;;
9976;SDS011;5029;47.378;11.776;2022-10-26T06:38:57;2.50;;;2.30;;
9976;SDS011;5029;47.378;11.776;2022-10-26T06:44:04;2.93;;;2.20;;
9976;SDS011;5029;47.378;11.776;2022-10-26T06:49:12;4.10;;;2.30;;
9976;SDS011;5029;47.378;11.776;2022-10-26T06:54:23;3.60;;;1.97;;
9976;SDS011;5029;47.378;11.776;2022-10-26T06:59:34;2.40;;;2.00;;
9976;SDS011;5029;47.378;11.776;2022-10-26T07:04:42;2.10;;;1.90;;
9976;SDS011;5029;47.378;11.776;2022-10-26T07:09:48;2.30;;;2.10;;
9976;SDS011;5029;47.378;11.776;2022-10-26T07:14:51;2.83;;;2.30;;
9976;SDS011;5029;47.378;11.776;2022-10-26T07:19:55;2.13;;;1.90;;
9976;SDS011;5029;47.378;11.776;2022-10-26T07:25:00;2.80;;;2.50;;
9976;SDS011;5029;47.378;11.776;2022-10-26T07:30:05;3.80;;;2.10;;
9976;SDS011;5029;47.378;11.776;2022-10-26T07:35:10;2.20;;;2.00;;
9976;SDS011;5029;47.378;11.776;2022-10-26T07:40:15;3.53;;;2.87;;
9976;SDS011;5029;47.378;11.776;2022-10-26T07:45:19;4.70;;;2.77;;
9976;SDS011;5029;47.378;11.776;2022-10-26T07:50:23;3.37;;;2.30;;
9976;SDS011;5029;47.378;11.776;2022-10-26T07:55:28;3.70;;;1.87;;
9976;SDS011;5029;47.378;11.776;2022-10-26T08:00:32;7.20;;;4.50;;
9976;SDS011;5029;47.378;11.776;2022-10-26T08:05:35;5.30;;;2.97;;
9976;SDS011;5029;47.378;11.776;2022-10-26T08:10:42;3.10;;;2.47;;
9976;SDS011;5029;47.378;11.776;2022-10-26T08:15:46;6.40;;;3.67;;
9976;SDS011;5029;47.378;11.776;2022-10-26T08:20:49;3.90;;;2.50;;
9976;SDS011;5029;47.378;11.776;2022-10-26T08:25:57;2.60;;;2.40;;
9976;SDS011;5029;47.378;11.776;2022-10-26T08:31:02;2.47;;;1.83;;
9976;SDS011;5029;47.378;11.776;2022-10-26T08:36:06;5.50;;;2.70;;
9976;SDS011;5029;47.378;11.776;2022-10-26T08:41:12;6.00;;;2.13;;
9976;SDS011;5029;47.378;11.776;2022-10-26T08:46:18;2.70;;;1.70;;
9976;SDS011;5029;47.378;11.776;2022-10-26T08:51:24;2.87;;;2.10;;
9976;SDS011;5029;47.378;11.776;2022-10-26T08:56:38;4.47;;;2.30;;
9976;SDS011;5029;47.378;11.776;2022-10-26T09:01:50;4.33;;;2.50;;
9976;SDS011;5029;47.378;11.776;2022-10-26T09:06:55;3.57;;;2.70;;
9976;SDS011;5029;47.378;11.776;2022-10-26T09:17:32;5.97;;;4.17;;
9976;SDS011;5029;47.378;11.776;2022-10-26T09:22:56;4.10;;;2.60;;
9976;SDS011;5029;47.378;11.776;2022-10-26T09:28:10;4.23;;;3.00;;
9976;SDS011;5029;47.378;11.776;2022-10-26T09:33:21;4.83;;;2.63;;
9976;SDS011;5029;47.378;11.776;2022-10-26T09:38:28;5.87;;;2.67;;
9976;SDS011;5029;47.378;11.776;2022-10-26T09:43:36;3.43;;;2.73;;
9976;SDS011;5029;47.378;11.776;2022-10-26T09:48:48;4.17;;;2.90;;
9976;SDS011;5029;47.378;11.776;2022-10-26T09:53:55;3.37;;;2.73;;
9976;SDS011;5029;47.378;11.776;2022-10-26T09:59:03;4.00;;;2.40;;
9976;SDS011;5029;47.378;11.776;2022-10-26T10:04:15;4.53;;;2.50;;
9976;SDS011;5029;47.378;11.776;2022-10-26T10:09:21;3.17;;;2.70;;
9976;SDS011;5029;47.378;11.776;2022-10-26T10:14:27;4.33;;;2.70;;
9976;SDS011;5029;47.378;11.776;2022-10-26T10:19:39;3.37;;;2.93;;
9976;SDS011;5029;47.378;11.776;2022-10-26T10:24:51;2.77;;;1.87;;
9976;SDS011;5029;47.378;11.776;2022-10-26T10:35:24;2.07;;;1.47;;
9976;SDS011;5029;47.378;11.776;2022-10-26T10:40:31;2.93;;;1.70;;
9976;SDS011;5029;47.378;11.776;2022-10-26T10:45:37;1.90;;;1.70;;
9976;SDS011;5029;47.378;11.776;2022-10-26T10:50:50;4.07;;;1.50;;
9976;SDS011;5029;47.378;11.776;2022-10-26T10:55:59;2.47;;;1.80;;
9976;SDS011;5029;47.378;11.776;2022-10-26T11:01:13;2.47;;;2.10;;
9976;SDS011;5029;47.378;11.776;2022-10-26T11:06:21;2.53;;;1.90;;
9976;SDS011;5029;47.378;11.776;2022-10-26T11:11:30;3.03;;;2.20;;
9976;SDS011;5029;47.378;11.776;2022-10-26T11:16:50;3.37;;;2.20;;
9976;SDS011;5029;47.378;11.776;2022-10-26T11:22:04;2.07;;;1.87;;
9976;SDS011;5029;47.378;11.776;2022-10-26T11:27:16;3.03;;;2.10;;
9976;SDS011;5029;47.378;11.776;2022-10-26T11:32:27;4.93;;;3.27;;
9976;SDS011;5029;47.378;11.776;2022-10-26T11:37:38;5.63;;;3.50;;
9976;SDS011;5029;47.378;11.776;2022-10-26T11:42:48;12.13;;;6.23;;
9976;SDS011;5029;47.378;11.776;2022-10-26T11:48:01;4.77;;;3.10;;
9976;SDS011;5029;47.378;11.776;2022-10-26T11:53:16;8.33;;;4.70;;
9976;SDS011;5029;47.378;11.776;2022-10-26T11:58:24;4.93;;;3.77;;
9976;SDS011;5029;47.378;11.776;2022-10-26T12:03:51;4.90;;;3.10;;
9976;SDS011;5029;47.378;11.776;2022-10-26T12:08:56;5.30;;;2.93;;
9976;SDS011;5029;47.378;11.776;2022-10-26T12:14:07;5.27;;;2.80;;
9976;SDS011;5029;47.378;11.776;2022-10-26T12:19:23;3.30;;;3.00;;
9976;SDS011;5029;47.378;11.776;2022-10-26T12:24:30;3.60;;;3.00;;
9976;SDS011;5029;47.378;11.776;2022-10-26T12:29:36;4.23;;;3.80;;
9976;SDS011;5029;47.378;11.776;2022-10-26T12:34:59;3.97;;;2.23;;
9976;SDS011;5029;47.378;11.776;2022-10-26T12:45:43;3.47;;;2.37;;
9976;SDS011;5029;47.378;11.776;2022-10-26T12:50:49;2.93;;;2.10;;
9976;SDS011;5029;47.378;11.776;2022-10-26T12:55:57;3.20;;;2.17;;
9976;SDS011;5029;47.378;11.776;2022-10-26T13:01:13;2.87;;;2.30;;
9976;SDS011;5029;47.378;11.776;2022-10-26T13:06:34;2.20;;;2.00;;
9976;SDS011;5029;47.378;11.776;2022-10-26T13:11:47;2.10;;;1.83;;
9976;SDS011;5029;47.378;11.776;2022-10-26T13:16:54;3.53;;;2.50;;
9976;SDS011;5029;47.378;11.776;2022-10-26T13:22:20;3.83;;;2.20;;
9976;SDS011;5029;47.378;11.776;2022-10-26T13:27:38;14.00;;;3.00;;
9976;SDS011;5029;47.378;11.776;2022-10-26T13:32:51;2.80;;;1.80;;
9976;SDS011;5029;47.378;11.776;2022-10-26T13:37:58;4.17;;;3.33;;
9976;SDS011;5029;47.378;11.776;2022-10-26T13:43:13;3.60;;;2.50;;
9976;SDS011;5029;47.378;11.776;2022-10-26T13:48:25;3.17;;;2.03;;
9976;SDS011;5029;47.378;11.776;2022-10-26T13:53:37;4.97;;;2.50;;
9976;SDS011;5029;47.378;11.776;2022-10-26T13:58:44;5.60;;;2.37;;
9976;SDS011;5029;47.378;11.776;2022-10-26T14:03:51;5.20;;;2.90;;
9976;SDS011;5029;47.378;11.776;2022-10-26T14:08:57;4.00;;;2.97;;
9976;SDS011;5029;47.378;11.776;2022-10-26T14:14:20;3.17;;;2.80;;
9976;SDS011;5029;47.378;11.776;2022-10-26T14:19:43;2.60;;;2.40;;
9976;SDS011;5029;47.378;11.776;2022-10-26T14:25:18;3.43;;;2.30;;
9976;SDS011;5029;47.378;11.776;2022-10-26T14:30:45;2.50;;;2.30;;
9976;SDS011;5029;47.378;11.776;2022-10-26T14:36:03;4.47;;;2.30;;
9976;SDS011;5029;47.378;11.776;2022-10-26T14:47:11;2.23;;;2.03;;
9976;SDS011;5029;47.378;11.776;2022-10-26T14:52:22;2.80;;;2.10;;
9976;SDS011;5029;47.378;11.776;2022-10-26T15:20:44;2.10;;;1.80;;
9976;SDS011;5029;47.378;11.776;2022-10-26T15:38:25;5.53;;;2.60;;
9976;SDS011;5029;47.378;11.776;2022-10-26T15:43:33;3.67;;;1.93;;
9976;SDS011;5029;47.378;11.776;2022-10-26T15:48:37;3.43;;;2.00;;
9976;SDS011;5029;47.378;11.776;2022-10-26T15:53:42;3.67;;;2.03;;
9976;SDS011;5029;47.378;11.776;2022-10-26T15:58:48;3.97;;;2.00;;
9976;SDS011;5029;47.378;11.776;2022-10-26T16:03:52;4.53;;;2.00;;
9976;SDS011;5029;47.378;11.776;2022-10-26T16:08:57;1.80;;;1.57;;
9976;SDS011;5029;47.378;11.776;2022-10-26T16:14:05;3.87;;;1.70;;
9976;SDS011;5029;47.378;11.776;2022-10-26T16:19:11;2.47;;;1.47;;
9976;SDS011;5029;47.378;11.776;2022-10-26T16:24:32;3.57;;;1.73;;
9976;SDS011;5029;47.378;11.776;2022-10-26T16:29:41;4.73;;;1.50;;
9976;SDS011;5029;47.378;11.776;2022-10-26T16:34:47;4.77;;;1.70;;
9976;SDS011;5029;47.378;11.776;2022-10-26T16:39:54;2.30;;;1.70;;
9976;SDS011;5029;47.378;11.776;2022-10-26T16:45:00;3.90;;;1.30;;
9976;SDS011;5029;47.378;11.776;2022-10-26T16:50:04;3.97;;;1.40;;
9976;SDS011;5029;47.378;11.776;2022-10-26T16:55:09;2.90;;;1.50;;
9976;SDS011;5029;47.378;11.776;2022-10-26T17:00:14;3.53;;;1.40;;
9976;SDS011;5029;47.378;11.776;2022-10-26T17:05:19;7.50;;;4.00;;
9976;SDS011;5029;47.378;11.776;2022-10-26T17:10:25;4.03;;;3.03;;
9976;SDS011;5029;47.378;11.776;2022-10-26T17:15:33;7.03;;;1.77;;
9976;SDS011;5029;47.378;11.776;2022-10-26T17:20:39;1.90;;;1.70;;
9976;SDS011;5029;47.378;11.776;2022-10-26T17:25:54;7.70;;;1.67;;
9976;SDS011;5029;47.378;11.776;2022-10-26T17:31:08;1.80;;;1.60;;
9976;SDS011;5029;47.378;11.776;2022-10-26T17:36:14;4.60;;;1.80;;
9976;SDS011;5029;47.378;11.776;2022-10-26T17:41:22;4.23;;;1.63;;
9976;SDS011;5029;47.378;11.776;2022-10-26T17:46:29;6.87;;;1.57;;
9976;SDS011;5029;47.378;11.776;2022-10-26T17:51:43;3.30;;;1.93;;
9976;SDS011;5029;47.378;11.776;2022-10-26T17:56:50;3.10;;;1.50;;
9976;SDS011;5029;47.378;11.776;2022-10-26T18:01:57;4.93;;;1.80;;
9976;SDS011;5029;47.378;11.776;2022-10-26T18:07:03;4.57;;;1.97;;
9976;SDS011;5029;47.378;11.776;2022-10-26T18:12:08;9.47;;;1.87;;
9976;SDS011;5029;47.378;11.776;2022-10-26T18:23:01;2.03;;;1.83;;
9976;SDS011;5029;47.378;11.776;2022-10-26T18:28:07;3.63;;;2.17;;
9976;SDS011;5029;47.378;11.776;2022-10-26T18:33:17;2.87;;;2.10;;
9976;SDS011;5029;47.378;11.776;2022-10-26T18:38:22;3.80;;;2.17;;
9976;SDS011;5029;47.378;11.776;2022-10-26T18:43:30;4.30;;;2.50;;
9976;SDS011;5029;47.378;11.776;2022-10-26T18:48:37;3.37;;;2.40;;
9976;SDS011;5029;47.378;11.776;2022-10-26T18:53:53;5.13;;;2.53;;
9976;SDS011;5029;47.378;11.776;2022-10-26T18:59:03;4.77;;;2.90;;
9976;SDS011;5029;47.378;11.776;2022-10-26T19:04:11;6.50;;;3.60;;
9976;SDS011;5029;47.378;11.776;2022-10-26T19:09:22;6.07;;;2.80;;
9976;SDS011;5029;47.378;11.776;2022-10-26T19:14:30;3.23;;;2.30;;
9976;SDS011;5029;47.378;11.776;2022-10-26T19:19:39;5.50;;;2.60;;
9976;SDS011;5029;47.378;11.776;2022-10-26T19:24:44;3.23;;;2.10;;
9976;SDS011;5029;47.378;11.776;2022-10-26T19:29:49;5.87;;;2.80;;
9976;SDS011;5029;47.378;11.776;2022-10-26T19:34:57;4.10;;;2.40;;
9976;SDS011;5029;47.378;11.776;2022-10-26T19:40:04;4.27;;;2.00;;
9976;SDS011;5029;47.378;11.776;2022-10-26T19:45:15;3.97;;;2.60;;
9976;SDS011;5029;47.378;11.776;2022-10-26T19:50:21;4.97;;;2.93;;
9976;SDS011;5029;47.378;11.776;2022-10-26T19:55:30;5.43;;;2.47;;
9976;SDS011;5029;47.378;11.776;2022-10-26T20:00:38;4.10;;;2.30;;
9976;SDS011;5029;47.378;11.776;2022-10-26T20:05:45;2.20;;;1.90;;
9976;SDS011;5029;47.378;11.776;2022-10-26T20:10:51;5.23;;;2.80;;
9976;SDS011;5029;47.378;11.776;2022-10-26T20:16:01;5.60;;;2.43;;
9976;SDS011;5029;47.378;11.776;2022-10-26T20:21:16;3.97;;;2.33;;
9976;SDS011;5029;47.378;11.776;2022-10-26T20:26:20;3.80;;;2.40;;
9976;SDS011;5029;47.378;11.776;2022-10-26T20:31:29;2.63;;;2.03;;
9976;SDS011;5029;47.378;11.776;2022-10-26T20:36:40;3.00;;;2.37;;
9976;SDS011;5029;47.378;11.776;2022-10-26T20:41:47;6.43;;;2.53;;
9976;SDS011;5029;47.378;11.776;2022-10-26T20:46:55;5.73;;;4.97;;
9976;SDS011;5029;47.378;11.776;2022-10-26T20:52:04;6.07;;;5.13;;
9976;SDS011;5029;47.378;11.776;2022-10-26T20:57:29;6.90;;;4.17;;
9976;SDS011;5029;47.378;11.776;2022-10-26T21:02:42;6.53;;;4.57;;
9976;SDS011;5029;47.378;11.776;2022-10-26T21:07:55;5.00;;;4.00;;
9976;SDS011;5029;47.378;11.776;2022-10-26T21:12:59;5.80;;;4.27;;
9976;SDS011;5029;47.378;11.776;2022-10-26T21:18:03;7.00;;;3.80;;
9976;SDS011;5029;47.378;11.776;2022-10-26T21:23:08;6.67;;;4.10;;
9976;SDS011;5029;47.378;11.776;2022-10-26T21:28:12;7.37;;;3.50;;
9976;SDS011;5029;47.378;11.776;2022-10-26T21:33:15;6.97;;;3.60;;
9976;SDS011;5029;47.378;11.776;2022-10-26T21:38:26;5.83;;;4.03;;
9976;SDS011;5029;47.378;11.776;2022-10-26T21:43:31;5.07;;;4.43;;
9976;SDS011;5029;47.378;11.776;2022-10-26T21:48:34;7.57;;;4.53;;
9976;SDS011;5029;47.378;11.776;2022-10-26T21:53:40;5.03;;;3.80;;
9976;SDS011;5029;47.378;11.776;2022-10-26T21:58:44;7.23;;;4.40;;
9976;SDS011;5029;47.378;11.776;2022-10-26T22:03:48;5.30;;;4.33;;
9976;SDS011;5029;47.378;11.776;2022-10-26T22:08:53;5.57;;;3.97;;
9976;SDS011;5029;47.378;11.776;2022-10-26T22:13:57;6.37;;;3.90;;
9976;SDS011;5029;47.378;11.776;2022-10-26T22:19:02;6.10;;;3.90;;
9976;SDS011;5029;47.378;11.776;2022-10-26T22:24:08;4.93;;;3.80;;
9976;SDS011;5029;47.378;11.776;2022-10-26T22:29:12;8.97;;;3.60;;
9976;SDS011;5029;47.378;11.776;2022-10-26T22:34:16;3.40;;;3.10;;
9976;SDS011;5029;47.378;11.776;2022-10-26T22:39:22;4.97;;;3.43;;
9976;SDS011;5029;47.378;11.776;2022-10-26T22:44:26;4.47;;;3.43;;
9976;SDS011;5029;47.378;11.776;2022-10-26T22:49:29;5.10;;;4.17;;
9976;SDS011;5029;47.378;11.776;2022-10-26T22:54:34;6.03;;;3.80;;
9976;SDS011;5029;47.378;11.776;2022-10-26T22:59:38;6.80;;;3.63;;
9976;SDS011;5029;47.378;11.776;2022-10-26T23:04:41;7.30;;;3.53;;
9976;SDS011;5029;47.378;11.776;2022-10-26T23:09:46;5.37;;;4.10;;
9976;SDS011;5029;47.378;11.776;2022-10-26T23:14:50;8.50;;;3.50;;
9976;SDS011;5029;47.378;11.776;2022-10-26T23:19:53;5.07;;;3.60;;
9976;SDS011;5029;47.378;11.776;2022-10-26T23:24:58;3.50;;;3.20;;
9976;SDS011;5029;47.378;11.776;2022-10-26T23:30:02;3.90;;;3.30;;
9976;SDS011;5029;47.378;11.776;2022-10-26T23:35:06;10.67;;;3.70;;
9976;SDS011;5029;47.378;11.776;2022-10-26T23:40:11;8.90;;;3.50;;
9976;SDS011;5029;47.378;11.776;2022-10-26T23:45:15;8.10;;;3.17;;
9976;SDS011;5029;47.378;11.776;2022-10-26T23:50:19;6.33;;;3.60;;
9976;SDS011;5029;47.378;11.776;2022-10-26T23:55:24;4.90;;;3.03;;
